sensor_id;sensor_type;location;lat;lon;timestamp;P1;durP1;ratioP1;P2;durP2;ratioP2
14282;SDS011;7225;59.282;18.344;2023-01-15T00:02:07;10.90;;;3.70;;
14282;SDS011;7225;59.282;18.344;2023-01-15T00:04:35;9.63;;;3.90;;
14282;SDS011;7225;59.282;18.344;2023-01-15T00:07:03;12.90;;;3.60;;
14282;SDS011;7225;59.282;18.344;2023-01-15T00:09:31;14.40;;;4.37;;
14282;SDS011;7225;59.282;18.344;2023-01-15T00:11:59;10.90;;;3.67;;
14282;SDS011;7225;59.282;18.344;2023-01-15T00:14:28;9.67;;;4.13;;
14282;SDS011;7225;59.282;18.344;2023-01-15T00:16:56;11.03;;;3.00;;
14282;SDS011;7225;59.282;18.344;2023-01-15T00:19:24;11.53;;;3.37;;
14282;SDS011;7225;59.282;18.344;2023-01-15T00:21:52;8.47;;;2.93;;
14282;SDS011;7225;59.282;18.344;2023-01-15T00:24:20;8.53;;;2.60;;
14282;SDS011;7225;59.282;18.344;2023-01-15T00:27:11;9.17;;;3.73;;
14282;SDS011;7225;59.282;18.344;2023-01-15T00:29:57;12.60;;;3.40;;
14282;SDS011;7225;59.282;18.344;2023-01-15T00:32:26;12.27;;;3.80;;
14282;SDS011;7225;59.282;18.344;2023-01-15T00:34:57;8.83;;;3.03;;
14282;SDS011;7225;59.282;18.344;2023-01-15T00:37:26;10.03;;;3.17;;
14282;SDS011;7225;59.282;18.344;2023-01-15T00:39:54;10.00;;;2.80;;
14282;SDS011;7225;59.282;18.344;2023-01-15T00:42:21;11.37;;;3.20;;
14282;SDS011;7225;59.282;18.344;2023-01-15T00:44:49;9.20;;;3.20;;
14282;SDS011;7225;59.282;18.344;2023-01-15T00:47:18;9.70;;;3.40;;
14282;SDS011;7225;59.282;18.344;2023-01-15T00:49:46;6.23;;;2.80;;
14282;SDS011;7225;59.282;18.344;2023-01-15T00:52:15;8.37;;;3.27;;
14282;SDS011;7225;59.282;18.344;2023-01-15T00:54:43;7.07;;;2.93;;
14282;SDS011;7225;59.282;18.344;2023-01-15T00:57:11;14.77;;;4.43;;
14282;SDS011;7225;59.282;18.344;2023-01-15T00:59:40;8.70;;;2.47;;
14282;SDS011;7225;59.282;18.344;2023-01-15T01:02:09;5.83;;;2.40;;
14282;SDS011;7225;59.282;18.344;2023-01-15T01:04:37;8.27;;;3.00;;
14282;SDS011;7225;59.282;18.344;2023-01-15T01:07:06;7.73;;;2.10;;
14282;SDS011;7225;59.282;18.344;2023-01-15T01:09:34;10.53;;;2.90;;
14282;SDS011;7225;59.282;18.344;2023-01-15T01:12:04;3.50;;;2.03;;
14282;SDS011;7225;59.282;18.344;2023-01-15T01:14:32;8.33;;;2.13;;
14282;SDS011;7225;59.282;18.344;2023-01-15T01:17:01;9.53;;;1.93;;
14282;SDS011;7225;59.282;18.344;2023-01-15T01:19:28;5.43;;;2.20;;
14282;SDS011;7225;59.282;18.344;2023-01-15T01:21:56;7.97;;;2.40;;
14282;SDS011;7225;59.282;18.344;2023-01-15T01:24:24;3.53;;;1.70;;
14282;SDS011;7225;59.282;18.344;2023-01-15T01:26:52;5.90;;;2.40;;
14282;SDS011;7225;59.282;18.344;2023-01-15T01:29:21;3.97;;;1.60;;
14282;SDS011;7225;59.282;18.344;2023-01-15T01:31:50;4.27;;;1.93;;
14282;SDS011;7225;59.282;18.344;2023-01-15T01:34:17;8.17;;;2.20;;
14282;SDS011;7225;59.282;18.344;2023-01-15T01:36:45;7.43;;;2.17;;
14282;SDS011;7225;59.282;18.344;2023-01-15T01:39:14;9.17;;;2.73;;
14282;SDS011;7225;59.282;18.344;2023-01-15T01:41:44;7.77;;;2.43;;
14282;SDS011;7225;59.282;18.344;2023-01-15T01:45:17;8.43;;;3.73;;
14282;SDS011;7225;59.282;18.344;2023-01-15T01:47:14;8.27;;;2.87;;
14282;SDS011;7225;59.282;18.344;2023-01-15T01:49:53;8.63;;;3.67;;
14282;SDS011;7225;59.282;18.344;2023-01-15T01:52:30;12.97;;;3.00;;
14282;SDS011;7225;59.282;18.344;2023-01-15T01:55:03;5.33;;;2.63;;
14282;SDS011;7225;59.282;18.344;2023-01-15T01:57:32;10.20;;;2.83;;
14282;SDS011;7225;59.282;18.344;2023-01-15T02:00:02;5.27;;;2.00;;
14282;SDS011;7225;59.282;18.344;2023-01-15T02:02:33;4.57;;;2.20;;
14282;SDS011;7225;59.282;18.344;2023-01-15T02:05:01;7.20;;;2.67;;
14282;SDS011;7225;59.282;18.344;2023-01-15T02:07:31;5.77;;;2.77;;
14282;SDS011;7225;59.282;18.344;2023-01-15T02:10:00;2.97;;;2.13;;
14282;SDS011;7225;59.282;18.344;2023-01-15T02:12:36;7.30;;;2.50;;
14282;SDS011;7225;59.282;18.344;2023-01-15T02:15:16;4.50;;;2.03;;
14282;SDS011;7225;59.282;18.344;2023-01-15T02:20:42;3.33;;;1.83;;
14282;SDS011;7225;59.282;18.344;2023-01-15T02:28:39;5.63;;;1.80;;
14282;SDS011;7225;59.282;18.344;2023-01-15T02:31:15;2.87;;;1.13;;
14282;SDS011;7225;59.282;18.344;2023-01-15T02:33:56;6.97;;;1.63;;
14282;SDS011;7225;59.282;18.344;2023-01-15T02:36:34;3.30;;;1.57;;
14282;SDS011;7225;59.282;18.344;2023-01-15T02:39:08;4.53;;;1.80;;
14282;SDS011;7225;59.282;18.344;2023-01-15T02:41:40;5.20;;;1.83;;
14282;SDS011;7225;59.282;18.344;2023-01-15T02:44:11;5.13;;;1.90;;
14282;SDS011;7225;59.282;18.344;2023-01-15T02:46:42;6.70;;;1.60;;
14282;SDS011;7225;59.282;18.344;2023-01-15T02:49:12;4.10;;;1.00;;
14282;SDS011;7225;59.282;18.344;2023-01-15T02:54:35;5.13;;;1.93;;
14282;SDS011;7225;59.282;18.344;2023-01-15T02:57:33;3.20;;;1.93;;
14282;SDS011;7225;59.282;18.344;2023-01-15T03:00:06;3.73;;;1.40;;
14282;SDS011;7225;59.282;18.344;2023-01-15T03:02:42;2.60;;;1.40;;
14282;SDS011;7225;59.282;18.344;2023-01-15T03:05:19;2.90;;;1.57;;
14282;SDS011;7225;59.282;18.344;2023-01-15T03:07:58;4.33;;;2.37;;
14282;SDS011;7225;59.282;18.344;2023-01-15T03:10:42;3.10;;;1.40;;
14282;SDS011;7225;59.282;18.344;2023-01-15T03:13:22;5.33;;;1.33;;
14282;SDS011;7225;59.282;18.344;2023-01-15T03:15:58;4.93;;;1.67;;
14282;SDS011;7225;59.282;18.344;2023-01-15T03:21:40;5.23;;;1.70;;
14282;SDS011;7225;59.282;18.344;2023-01-15T03:26:56;4.87;;;1.70;;
14282;SDS011;7225;59.282;18.344;2023-01-15T03:29:24;2.73;;;1.60;;
14282;SDS011;7225;59.282;18.344;2023-01-15T03:31:57;6.53;;;2.00;;
14282;SDS011;7225;59.282;18.344;2023-01-15T03:34:28;4.20;;;1.53;;
14282;SDS011;7225;59.282;18.344;2023-01-15T03:37:01;9.13;;;1.83;;
14282;SDS011;7225;59.282;18.344;2023-01-15T03:39:29;5.37;;;2.10;;
14282;SDS011;7225;59.282;18.344;2023-01-15T03:42:09;5.63;;;1.97;;
14282;SDS011;7225;59.282;18.344;2023-01-15T03:44:56;6.77;;;2.40;;
14282;SDS011;7225;59.282;18.344;2023-01-15T03:50:26;8.27;;;2.70;;
14282;SDS011;7225;59.282;18.344;2023-01-15T03:58:36;6.03;;;2.50;;
14282;SDS011;7225;59.282;18.344;2023-01-15T04:01:10;6.13;;;2.17;;
14282;SDS011;7225;59.282;18.344;2023-01-15T04:03:40;6.20;;;2.00;;
14282;SDS011;7225;59.282;18.344;2023-01-15T04:06:09;4.03;;;2.67;;
14282;SDS011;7225;59.282;18.344;2023-01-15T04:08:38;7.53;;;3.30;;
14282;SDS011;7225;59.282;18.344;2023-01-15T04:11:10;10.13;;;3.00;;
14282;SDS011;7225;59.282;18.344;2023-01-15T04:13:38;4.97;;;2.43;;
14282;SDS011;7225;59.282;18.344;2023-01-15T04:16:08;8.23;;;2.37;;
14282;SDS011;7225;59.282;18.344;2023-01-15T04:18:38;4.60;;;2.40;;
14282;SDS011;7225;59.282;18.344;2023-01-15T04:21:05;5.97;;;2.20;;
14282;SDS011;7225;59.282;18.344;2023-01-15T04:23:34;5.10;;;1.97;;
14282;SDS011;7225;59.282;18.344;2023-01-15T04:26:01;3.90;;;1.53;;
14282;SDS011;7225;59.282;18.344;2023-01-15T04:28:29;4.23;;;2.63;;
14282;SDS011;7225;59.282;18.344;2023-01-15T04:30:58;5.37;;;2.30;;
14282;SDS011;7225;59.282;18.344;2023-01-15T04:33:27;4.73;;;1.57;;
14282;SDS011;7225;59.282;18.344;2023-01-15T04:35:54;4.73;;;2.00;;
14282;SDS011;7225;59.282;18.344;2023-01-15T04:38:24;4.63;;;2.00;;
14282;SDS011;7225;59.282;18.344;2023-01-15T04:40:51;7.57;;;2.47;;
14282;SDS011;7225;59.282;18.344;2023-01-15T04:43:37;5.80;;;2.10;;
14282;SDS011;7225;59.282;18.344;2023-01-15T04:46:26;4.53;;;2.07;;
14282;SDS011;7225;59.282;18.344;2023-01-15T04:48:54;6.67;;;2.00;;
14282;SDS011;7225;59.282;18.344;2023-01-15T04:51:23;6.07;;;2.30;;
14282;SDS011;7225;59.282;18.344;2023-01-15T04:53:51;5.00;;;2.03;;
14282;SDS011;7225;59.282;18.344;2023-01-15T04:56:20;3.87;;;1.97;;
14282;SDS011;7225;59.282;18.344;2023-01-15T04:58:48;6.23;;;2.27;;
14282;SDS011;7225;59.282;18.344;2023-01-15T05:01:16;7.13;;;2.00;;
14282;SDS011;7225;59.282;18.344;2023-01-15T05:03:45;5.27;;;1.83;;
14282;SDS011;7225;59.282;18.344;2023-01-15T05:06:13;4.33;;;1.53;;
14282;SDS011;7225;59.282;18.344;2023-01-15T05:08:41;2.57;;;1.43;;
14282;SDS011;7225;59.282;18.344;2023-01-15T05:11:11;3.20;;;1.03;;
14282;SDS011;7225;59.282;18.344;2023-01-15T05:13:38;3.87;;;1.30;;
14282;SDS011;7225;59.282;18.344;2023-01-15T05:18:43;2.10;;;1.07;;
14282;SDS011;7225;59.282;18.344;2023-01-15T05:21:27;2.40;;;1.23;;
14282;SDS011;7225;59.282;18.344;2023-01-15T05:24:00;3.67;;;1.10;;
14282;SDS011;7225;59.282;18.344;2023-01-15T05:26:30;3.30;;;0.80;;
14282;SDS011;7225;59.282;18.344;2023-01-15T05:28:59;2.73;;;1.07;;
14282;SDS011;7225;59.282;18.344;2023-01-15T05:31:28;2.73;;;1.03;;
14282;SDS011;7225;59.282;18.344;2023-01-15T05:33:56;4.37;;;0.83;;
14282;SDS011;7225;59.282;18.344;2023-01-15T05:36:26;3.60;;;0.90;;
14282;SDS011;7225;59.282;18.344;2023-01-15T05:38:55;3.13;;;0.60;;
14282;SDS011;7225;59.282;18.344;2023-01-15T05:41:26;3.17;;;0.63;;
14282;SDS011;7225;59.282;18.344;2023-01-15T05:44:13;1.97;;;0.60;;
14282;SDS011;7225;59.282;18.344;2023-01-15T05:46:53;2.60;;;1.00;;
14282;SDS011;7225;59.282;18.344;2023-01-15T05:49:25;2.60;;;0.70;;
14282;SDS011;7225;59.282;18.344;2023-01-15T05:51:54;4.50;;;0.70;;
14282;SDS011;7225;59.282;18.344;2023-01-15T05:54:26;1.13;;;0.30;;
14282;SDS011;7225;59.282;18.344;2023-01-15T05:57:00;1.53;;;0.60;;
14282;SDS011;7225;59.282;18.344;2023-01-15T05:59:30;2.47;;;0.60;;
14282;SDS011;7225;59.282;18.344;2023-01-15T06:01:58;2.13;;;0.60;;
14282;SDS011;7225;59.282;18.344;2023-01-15T06:04:25;1.93;;;0.50;;
14282;SDS011;7225;59.282;18.344;2023-01-15T06:06:53;1.67;;;0.43;;
14282;SDS011;7225;59.282;18.344;2023-01-15T06:09:22;0.90;;;0.30;;
14282;SDS011;7225;59.282;18.344;2023-01-15T06:11:50;0.80;;;0.37;;
14282;SDS011;7225;59.282;18.344;2023-01-15T06:14:19;2.87;;;0.50;;
14282;SDS011;7225;59.282;18.344;2023-01-15T06:16:47;0.47;;;0.47;;
14282;SDS011;7225;59.282;18.344;2023-01-15T06:19:15;1.83;;;0.50;;
14282;SDS011;7225;59.282;18.344;2023-01-15T06:21:43;2.10;;;0.30;;
14282;SDS011;7225;59.282;18.344;2023-01-15T06:24:10;3.87;;;0.47;;
14282;SDS011;7225;59.282;18.344;2023-01-15T06:26:38;1.53;;;0.40;;
14282;SDS011;7225;59.282;18.344;2023-01-15T06:29:06;2.50;;;0.47;;
14282;SDS011;7225;59.282;18.344;2023-01-15T06:31:33;1.23;;;0.50;;
14282;SDS011;7225;59.282;18.344;2023-01-15T06:34:00;2.43;;;0.50;;
14282;SDS011;7225;59.282;18.344;2023-01-15T06:36:28;1.07;;;0.37;;
14282;SDS011;7225;59.282;18.344;2023-01-15T06:38:56;1.00;;;0.33;;
14282;SDS011;7225;59.282;18.344;2023-01-15T06:41:24;2.10;;;0.30;;
14282;SDS011;7225;59.282;18.344;2023-01-15T06:44:13;2.63;;;0.23;;
14282;SDS011;7225;59.282;18.344;2023-01-15T06:47:02;0.77;;;0.40;;
14282;SDS011;7225;59.282;18.344;2023-01-15T06:49:48;0.80;;;0.30;;
14282;SDS011;7225;59.282;18.344;2023-01-15T06:52:17;0.23;;;0.17;;
14282;SDS011;7225;59.282;18.344;2023-01-15T06:54:45;1.23;;;0.40;;
14282;SDS011;7225;59.282;18.344;2023-01-15T06:57:13;1.27;;;0.20;;
14282;SDS011;7225;59.282;18.344;2023-01-15T06:59:41;0.67;;;0.37;;
14282;SDS011;7225;59.282;18.344;2023-01-15T07:02:09;1.27;;;0.30;;
14282;SDS011;7225;59.282;18.344;2023-01-15T07:04:38;0.67;;;0.30;;
14282;SDS011;7225;59.282;18.344;2023-01-15T07:07:05;1.80;;;0.33;;
14282;SDS011;7225;59.282;18.344;2023-01-15T07:09:34;0.40;;;0.10;;
14282;SDS011;7225;59.282;18.344;2023-01-15T07:12:02;2.80;;;0.40;;
14282;SDS011;7225;59.282;18.344;2023-01-15T07:14:30;1.60;;;0.30;;
14282;SDS011;7225;59.282;18.344;2023-01-15T07:16:59;2.83;;;0.60;;
14282;SDS011;7225;59.282;18.344;2023-01-15T07:19:27;0.90;;;0.30;;
14282;SDS011;7225;59.282;18.344;2023-01-15T07:21:57;1.33;;;0.33;;
14282;SDS011;7225;59.282;18.344;2023-01-15T07:24:24;2.67;;;0.53;;
14282;SDS011;7225;59.282;18.344;2023-01-15T07:26:53;2.30;;;0.50;;
14282;SDS011;7225;59.282;18.344;2023-01-15T07:29:22;2.50;;;0.60;;
14282;SDS011;7225;59.282;18.344;2023-01-15T07:31:50;3.17;;;0.60;;
14282;SDS011;7225;59.282;18.344;2023-01-15T07:34:20;2.43;;;0.33;;
14282;SDS011;7225;59.282;18.344;2023-01-15T07:36:48;2.63;;;0.43;;
14282;SDS011;7225;59.282;18.344;2023-01-15T07:39:16;3.50;;;0.60;;
14282;SDS011;7225;59.282;18.344;2023-01-15T07:41:45;3.80;;;0.70;;
14282;SDS011;7225;59.282;18.344;2023-01-15T07:44:31;3.33;;;0.53;;
14282;SDS011;7225;59.282;18.344;2023-01-15T07:47:18;2.03;;;0.57;;
14282;SDS011;7225;59.282;18.344;2023-01-15T07:50:07;1.03;;;0.47;;
14282;SDS011;7225;59.282;18.344;2023-01-15T07:52:39;4.57;;;1.60;;
14282;SDS011;7225;59.282;18.344;2023-01-15T07:55:07;2.03;;;1.13;;
14282;SDS011;7225;59.282;18.344;2023-01-15T07:57:40;3.10;;;1.40;;
14282;SDS011;7225;59.282;18.344;2023-01-15T08:00:10;3.87;;;0.70;;
14282;SDS011;7225;59.282;18.344;2023-01-15T08:02:40;1.50;;;0.60;;
14282;SDS011;7225;59.282;18.344;2023-01-15T08:05:09;3.03;;;0.60;;
14282;SDS011;7225;59.282;18.344;2023-01-15T08:07:38;3.90;;;0.63;;
14282;SDS011;7225;59.282;18.344;2023-01-15T08:10:08;2.67;;;0.50;;
14282;SDS011;7225;59.282;18.344;2023-01-15T08:12:38;2.77;;;0.60;;
14282;SDS011;7225;59.282;18.344;2023-01-15T08:15:26;5.53;;;0.67;;
14282;SDS011;7225;59.282;18.344;2023-01-15T08:18:00;2.47;;;0.77;;
14282;SDS011;7225;59.282;18.344;2023-01-15T08:20:28;1.63;;;0.53;;
14282;SDS011;7225;59.282;18.344;2023-01-15T08:22:55;2.60;;;0.70;;
14282;SDS011;7225;59.282;18.344;2023-01-15T08:25:23;5.23;;;1.27;;
14282;SDS011;7225;59.282;18.344;2023-01-15T08:27:52;5.40;;;0.70;;
14282;SDS011;7225;59.282;18.344;2023-01-15T08:30:21;4.67;;;0.97;;
14282;SDS011;7225;59.282;18.344;2023-01-15T08:32:50;5.90;;;0.90;;
14282;SDS011;7225;59.282;18.344;2023-01-15T08:35:18;5.47;;;0.70;;
14282;SDS011;7225;59.282;18.344;2023-01-15T08:37:46;1.33;;;0.70;;
14282;SDS011;7225;59.282;18.344;2023-01-15T08:40:13;4.33;;;0.90;;
14282;SDS011;7225;59.282;18.344;2023-01-15T08:42:41;1.70;;;0.60;;
14282;SDS011;7225;59.282;18.344;2023-01-15T08:45:10;3.27;;;0.63;;
14282;SDS011;7225;59.282;18.344;2023-01-15T08:47:39;2.77;;;0.60;;
14282;SDS011;7225;59.282;18.344;2023-01-15T08:50:06;2.53;;;0.70;;
14282;SDS011;7225;59.282;18.344;2023-01-15T08:52:35;5.67;;;0.77;;
14282;SDS011;7225;59.282;18.344;2023-01-15T08:55:05;3.03;;;0.80;;
14282;SDS011;7225;59.282;18.344;2023-01-15T08:57:33;4.17;;;0.63;;
14282;SDS011;7225;59.282;18.344;2023-01-15T09:00:01;3.03;;;0.73;;
14282;SDS011;7225;59.282;18.344;2023-01-15T09:02:29;2.87;;;0.67;;
14282;SDS011;7225;59.282;18.344;2023-01-15T09:04:56;2.87;;;0.60;;
14282;SDS011;7225;59.282;18.344;2023-01-15T09:07:24;2.27;;;0.57;;
14282;SDS011;7225;59.282;18.344;2023-01-15T09:09:51;4.13;;;0.93;;
14282;SDS011;7225;59.282;18.344;2023-01-15T09:12:20;2.73;;;0.83;;
14282;SDS011;7225;59.282;18.344;2023-01-15T09:14:50;6.03;;;0.90;;
14282;SDS011;7225;59.282;18.344;2023-01-15T09:17:28;4.20;;;1.07;;
14282;SDS011;7225;59.282;18.344;2023-01-15T09:19:57;2.47;;;0.70;;
14282;SDS011;7225;59.282;18.344;2023-01-15T09:22:25;1.57;;;0.50;;
14282;SDS011;7225;59.282;18.344;2023-01-15T09:24:56;4.00;;;0.80;;
14282;SDS011;7225;59.282;18.344;2023-01-15T09:27:26;2.30;;;0.70;;
14282;SDS011;7225;59.282;18.344;2023-01-15T09:29:55;2.23;;;0.70;;
14282;SDS011;7225;59.282;18.344;2023-01-15T09:32:22;2.53;;;0.50;;
14282;SDS011;7225;59.282;18.344;2023-01-15T09:34:50;4.63;;;0.70;;
14282;SDS011;7225;59.282;18.344;2023-01-15T09:37:19;6.23;;;1.10;;
14282;SDS011;7225;59.282;18.344;2023-01-15T09:39:47;2.57;;;0.60;;
14282;SDS011;7225;59.282;18.344;2023-01-15T09:42:25;4.97;;;0.80;;
14282;SDS011;7225;59.282;18.344;2023-01-15T09:55:45;3.03;;;0.73;;
14282;SDS011;7225;59.282;18.344;2023-01-15T09:58:19;3.23;;;0.57;;
14282;SDS011;7225;59.282;18.344;2023-01-15T10:00:49;2.87;;;1.00;;
14282;SDS011;7225;59.282;18.344;2023-01-15T10:08:42;2.67;;;0.93;;
14282;SDS011;7225;59.282;18.344;2023-01-15T10:11:20;2.77;;;0.80;;
14282;SDS011;7225;59.282;18.344;2023-01-15T10:14:13;3.87;;;0.90;;
14282;SDS011;7225;59.282;18.344;2023-01-15T10:16:52;5.47;;;0.83;;
14282;SDS011;7225;59.282;18.344;2023-01-15T10:19:21;3.93;;;1.00;;
14282;SDS011;7225;59.282;18.344;2023-01-15T10:22:01;6.17;;;0.90;;
14282;SDS011;7225;59.282;18.344;2023-01-15T10:25:01;2.43;;;0.60;;
14282;SDS011;7225;59.282;18.344;2023-01-15T10:27:36;1.60;;;0.60;;
14282;SDS011;7225;59.282;18.344;2023-01-15T10:30:28;7.00;;;1.00;;
14282;SDS011;7225;59.282;18.344;2023-01-15T10:36:16;5.57;;;0.93;;
14282;SDS011;7225;59.282;18.344;2023-01-15T10:39:33;8.77;;;0.90;;
14282;SDS011;7225;59.282;18.344;2023-01-15T10:47:42;7.30;;;1.43;;
14282;SDS011;7225;59.282;18.344;2023-01-15T10:50:20;10.63;;;1.27;;
14282;SDS011;7225;59.282;18.344;2023-01-15T10:53:00;5.77;;;1.10;;
14282;SDS011;7225;59.282;18.344;2023-01-15T10:55:39;7.43;;;1.10;;
14282;SDS011;7225;59.282;18.344;2023-01-15T10:58:33;2.67;;;1.10;;
14282;SDS011;7225;59.282;18.344;2023-01-15T11:01:22;7.20;;;1.07;;
14282;SDS011;7225;59.282;18.344;2023-01-15T11:03:53;8.03;;;1.40;;
14282;SDS011;7225;59.282;18.344;2023-01-15T11:06:22;6.00;;;1.70;;
14282;SDS011;7225;59.282;18.344;2023-01-15T11:08:55;3.67;;;0.83;;
14282;SDS011;7225;59.282;18.344;2023-01-15T11:11:48;3.70;;;0.90;;
14282;SDS011;7225;59.282;18.344;2023-01-15T11:17:22;8.07;;;2.13;;
14282;SDS011;7225;59.282;18.344;2023-01-15T11:23:12;4.67;;;1.40;;
14282;SDS011;7225;59.282;18.344;2023-01-15T11:25:55;4.93;;;1.30;;
14282;SDS011;7225;59.282;18.344;2023-01-15T11:28:33;3.33;;;1.60;;
14282;SDS011;7225;59.282;18.344;2023-01-15T11:31:07;4.23;;;1.13;;
14282;SDS011;7225;59.282;18.344;2023-01-15T11:33:38;4.87;;;1.37;;
14282;SDS011;7225;59.282;18.344;2023-01-15T11:36:18;4.10;;;1.23;;
14282;SDS011;7225;59.282;18.344;2023-01-15T11:38:50;6.30;;;1.63;;
14282;SDS011;7225;59.282;18.344;2023-01-15T11:44:17;6.17;;;1.23;;
14282;SDS011;7225;59.282;18.344;2023-01-15T11:47:10;6.70;;;1.47;;
14282;SDS011;7225;59.282;18.344;2023-01-15T11:49:57;8.30;;;1.47;;
14282;SDS011;7225;59.282;18.344;2023-01-15T11:52:46;7.07;;;1.63;;
14282;SDS011;7225;59.282;18.344;2023-01-15T11:55:18;7.20;;;1.63;;
14282;SDS011;7225;59.282;18.344;2023-01-15T11:57:47;7.20;;;1.63;;
14282;SDS011;7225;59.282;18.344;2023-01-15T12:03:10;8.73;;;1.47;;
14282;SDS011;7225;59.282;18.344;2023-01-15T12:05:46;7.57;;;1.37;;
14282;SDS011;7225;59.282;18.344;2023-01-15T12:16:39;4.60;;;1.23;;
14282;SDS011;7225;59.282;18.344;2023-01-15T12:24:36;8.80;;;2.20;;
14282;SDS011;7225;59.282;18.344;2023-01-15T12:32:46;9.07;;;2.40;;
14282;SDS011;7225;59.282;18.344;2023-01-15T12:35:40;5.27;;;2.13;;
14282;SDS011;7225;59.282;18.344;2023-01-15T12:41:00;6.80;;;2.00;;
14282;SDS011;7225;59.282;18.344;2023-01-15T12:43:34;8.77;;;1.80;;
14282;SDS011;7225;59.282;18.344;2023-01-15T12:46:25;9.00;;;2.07;;
14282;SDS011;7225;59.282;18.344;2023-01-15T12:49:08;8.03;;;1.73;;
14282;SDS011;7225;59.282;18.344;2023-01-15T12:51:46;6.33;;;1.60;;
14282;SDS011;7225;59.282;18.344;2023-01-15T12:54:27;10.33;;;1.83;;
14282;SDS011;7225;59.282;18.344;2023-01-15T12:57:03;6.10;;;1.27;;
14282;SDS011;7225;59.282;18.344;2023-01-15T12:59:47;5.40;;;1.73;;
14282;SDS011;7225;59.282;18.344;2023-01-15T13:08:32;5.20;;;1.70;;
14282;SDS011;7225;59.282;18.344;2023-01-15T13:10:45;5.80;;;1.30;;
14282;SDS011;7225;59.282;18.344;2023-01-15T13:13:24;5.67;;;1.20;;
14282;SDS011;7225;59.282;18.344;2023-01-15T13:18:52;7.57;;;1.37;;
14282;SDS011;7225;59.282;18.344;2023-01-15T13:21:32;5.13;;;1.40;;
14282;SDS011;7225;59.282;18.344;2023-01-15T13:24:14;7.23;;;1.30;;
14282;SDS011;7225;59.282;18.344;2023-01-15T13:27:07;6.60;;;1.30;;
14282;SDS011;7225;59.282;18.344;2023-01-15T13:29:49;9.30;;;2.57;;
14282;SDS011;7225;59.282;18.344;2023-01-15T13:32:33;7.50;;;1.40;;
14282;SDS011;7225;59.282;18.344;2023-01-15T13:35:11;6.73;;;1.40;;
14282;SDS011;7225;59.282;18.344;2023-01-15T13:37:48;7.03;;;1.53;;
14282;SDS011;7225;59.282;18.344;2023-01-15T13:40:27;5.57;;;1.63;;
14282;SDS011;7225;59.282;18.344;2023-01-15T13:43:01;3.90;;;1.33;;
14282;SDS011;7225;59.282;18.344;2023-01-15T13:45:39;7.20;;;1.53;;
14282;SDS011;7225;59.282;18.344;2023-01-15T13:48:33;6.37;;;2.03;;
14282;SDS011;7225;59.282;18.344;2023-01-15T13:51:01;5.70;;;1.33;;
14282;SDS011;7225;59.282;18.344;2023-01-15T13:54:08;6.27;;;1.80;;
14282;SDS011;7225;59.282;18.344;2023-01-15T13:56:27;7.50;;;1.60;;
14282;SDS011;7225;59.282;18.344;2023-01-15T13:58:57;7.10;;;1.50;;
14282;SDS011;7225;59.282;18.344;2023-01-15T14:01:34;8.47;;;2.03;;
14282;SDS011;7225;59.282;18.344;2023-01-15T14:06:46;5.80;;;1.97;;
14282;SDS011;7225;59.282;18.344;2023-01-15T14:17:23;8.10;;;1.77;;
14282;SDS011;7225;59.282;18.344;2023-01-15T14:28:20;8.33;;;2.23;;
14282;SDS011;7225;59.282;18.344;2023-01-15T14:36:36;11.00;;;4.67;;
14282;SDS011;7225;59.282;18.344;2023-01-15T14:39:29;11.10;;;1.73;;
14282;SDS011;7225;59.282;18.344;2023-01-15T14:44:57;10.47;;;2.77;;
14282;SDS011;7225;59.282;18.344;2023-01-15T14:47:53;9.03;;;2.43;;
14282;SDS011;7225;59.282;18.344;2023-01-15T14:50:32;7.50;;;2.20;;
14282;SDS011;7225;59.282;18.344;2023-01-15T14:55:42;6.37;;;1.77;;
14282;SDS011;7225;59.282;18.344;2023-01-15T14:58:35;4.10;;;0.83;;
14282;SDS011;7225;59.282;18.344;2023-01-15T15:01:16;8.47;;;1.70;;
14282;SDS011;7225;59.282;18.344;2023-01-15T15:03:56;7.47;;;2.20;;
14282;SDS011;7225;59.282;18.344;2023-01-15T15:06:30;4.77;;;1.67;;
14282;SDS011;7225;59.282;18.344;2023-01-15T15:08:59;8.77;;;1.50;;
14282;SDS011;7225;59.282;18.344;2023-01-15T15:11:41;9.17;;;1.57;;
14282;SDS011;7225;59.282;18.344;2023-01-15T15:14:31;8.77;;;1.40;;
14282;SDS011;7225;59.282;18.344;2023-01-15T15:17:06;5.00;;;2.00;;
14282;SDS011;7225;59.282;18.344;2023-01-15T15:19:47;9.13;;;2.40;;
14282;SDS011;7225;59.282;18.344;2023-01-15T15:22:21;8.43;;;1.87;;
14282;SDS011;7225;59.282;18.344;2023-01-15T15:24:55;8.17;;;1.83;;
14282;SDS011;7225;59.282;18.344;2023-01-15T15:27:26;11.60;;;2.80;;
14282;SDS011;7225;59.282;18.344;2023-01-15T15:30:02;4.83;;;1.23;;
14282;SDS011;7225;59.282;18.344;2023-01-15T15:32:34;11.57;;;2.13;;
14282;SDS011;7225;59.282;18.344;2023-01-15T15:35:20;9.50;;;2.33;;
14282;SDS011;7225;59.282;18.344;2023-01-15T15:37:52;4.33;;;1.43;;
14282;SDS011;7225;59.282;18.344;2023-01-15T15:40:23;11.03;;;2.23;;
14282;SDS011;7225;59.282;18.344;2023-01-15T15:46:17;8.77;;;1.60;;
14282;SDS011;7225;59.282;18.344;2023-01-15T15:49:16;5.40;;;1.13;;
14282;SDS011;7225;59.282;18.344;2023-01-15T15:51:48;7.60;;;1.50;;
14282;SDS011;7225;59.282;18.344;2023-01-15T15:54:28;8.83;;;2.67;;
14282;SDS011;7225;59.282;18.344;2023-01-15T15:57:01;7.83;;;2.57;;
14282;SDS011;7225;59.282;18.344;2023-01-15T15:59:47;10.90;;;2.70;;
14282;SDS011;7225;59.282;18.344;2023-01-15T16:02:25;9.50;;;2.20;;
14282;SDS011;7225;59.282;18.344;2023-01-15T16:04:56;8.80;;;2.37;;
14282;SDS011;7225;59.282;18.344;2023-01-15T16:07:31;7.37;;;1.63;;
14282;SDS011;7225;59.282;18.344;2023-01-15T16:12:53;10.37;;;3.93;;
14282;SDS011;7225;59.282;18.344;2023-01-15T16:15:25;6.93;;;2.00;;
14282;SDS011;7225;59.282;18.344;2023-01-15T16:17:57;9.13;;;2.23;;
14282;SDS011;7225;59.282;18.344;2023-01-15T16:20:27;6.43;;;1.70;;
14282;SDS011;7225;59.282;18.344;2023-01-15T16:22:55;8.17;;;1.70;;
14282;SDS011;7225;59.282;18.344;2023-01-15T16:25:31;11.70;;;2.33;;
14282;SDS011;7225;59.282;18.344;2023-01-15T16:28:03;7.20;;;1.27;;
14282;SDS011;7225;59.282;18.344;2023-01-15T16:30:32;5.07;;;2.03;;
14282;SDS011;7225;59.282;18.344;2023-01-15T16:33:04;3.67;;;1.17;;
14282;SDS011;7225;59.282;18.344;2023-01-15T16:35:34;2.33;;;1.10;;
14282;SDS011;7225;59.282;18.344;2023-01-15T16:38:03;10.17;;;2.10;;
14282;SDS011;7225;59.282;18.344;2023-01-15T16:40:34;8.53;;;1.60;;
14282;SDS011;7225;59.282;18.344;2023-01-15T16:48:31;6.23;;;1.10;;
14282;SDS011;7225;59.282;18.344;2023-01-15T16:53:51;14.17;;;1.97;;
14282;SDS011;7225;59.282;18.344;2023-01-15T16:56:23;5.90;;;1.37;;
14282;SDS011;7225;59.282;18.344;2023-01-15T16:58:52;7.33;;;2.13;;
14282;SDS011;7225;59.282;18.344;2023-01-15T17:01:37;4.80;;;1.50;;
14282;SDS011;7225;59.282;18.344;2023-01-15T17:04:29;6.77;;;1.97;;
14282;SDS011;7225;59.282;18.344;2023-01-15T17:07:01;6.00;;;1.77;;
14282;SDS011;7225;59.282;18.344;2023-01-15T17:09:48;6.20;;;2.13;;
14282;SDS011;7225;59.282;18.344;2023-01-15T17:17:45;5.40;;;1.60;;
14282;SDS011;7225;59.282;18.344;2023-01-15T17:20:14;8.23;;;1.57;;
14282;SDS011;7225;59.282;18.344;2023-01-15T17:22:46;4.63;;;1.37;;
14282;SDS011;7225;59.282;18.344;2023-01-15T17:25:20;6.67;;;1.87;;
14282;SDS011;7225;59.282;18.344;2023-01-15T17:28:00;8.37;;;1.47;;
14282;SDS011;7225;59.282;18.344;2023-01-15T17:30:31;5.17;;;1.37;;
14282;SDS011;7225;59.282;18.344;2023-01-15T17:33:00;6.43;;;1.37;;
14282;SDS011;7225;59.282;18.344;2023-01-15T17:35:39;6.13;;;1.40;;
14282;SDS011;7225;59.282;18.344;2023-01-15T17:38:07;3.10;;;1.03;;
14282;SDS011;7225;59.282;18.344;2023-01-15T17:40:38;5.80;;;1.20;;
14282;SDS011;7225;59.282;18.344;2023-01-15T17:43:09;5.33;;;1.40;;
14282;SDS011;7225;59.282;18.344;2023-01-15T17:45:40;4.67;;;1.43;;
14282;SDS011;7225;59.282;18.344;2023-01-15T17:48:07;8.63;;;1.23;;
14282;SDS011;7225;59.282;18.344;2023-01-15T17:50:36;6.27;;;2.07;;